Time;durP1;ratioP1;P1;durP2;ratioP2;P2;SDS_P1;SDS_P2;PMS_P1;PMS_P2;Temp;Humidity;BMP_temperature;BMP_pressure;BME280_temperature;BME280_humidity;BME280_pressure;Samples;Min_cycle;Max_cycle;Signal;HPM_P1;HPM_P2
2022/06/30 00:02:24;;;;;;;3.25;1.95;;;;;;;27.08;36.06;101020.81;4972030;28;97119;-71
2022/06/30 00:04:51;;;;;;;2.97;2.50;;;;;;;26.98;36.03;101015.44;4972898;28;97434;-71
2022/06/30 00:07:18;;;;;;;2.92;2.63;;;;;;;27.09;35.88;101019.81;4976102;28;99706;-71
2022/06/30 00:09:45;;;;;;;2.65;2.22;;;;;;;27.09;36.23;101026.09;4975671;28;99673;-71
2022/06/30 00:12:12;;;;;;;4.50;2.25;;;;;;;26.90;36.59;101034.38;4976733;28;96717;-71
2022/06/30 00:14:39;;;;;;;3.40;2.30;;;;;;;27.01;36.57;101046.84;4971567;28;97181;-71
2022/06/30 00:17:06;;;;;;;2.55;2.13;;;;;;;27.05;36.38;101030.09;4977118;28;99313;-70
2022/06/30 00:19:33;;;;;;;5.18;2.15;;;;;;;27.18;36.37;101035.16;4974012;28;98729;-70
2022/06/30 00:21:59;;;;;;;3.45;2.35;;;;;;;27.19;36.35;101031.44;4978500;28;96757;-70
2022/06/30 00:24:26;;;;;;;6.38;2.50;;;;;;;27.23;36.54;101027.44;4973031;28;98964;-70
2022/06/30 00:26:53;;;;;;;4.38;2.58;;;;;;;27.23;36.71;101025.56;4971893;28;99305;-72
2022/06/30 00:29:20;;;;;;;8.73;2.08;;;;;;;27.22;36.73;101020.28;4975305;28;98976;-70
2022/06/30 00:31:46;;;;;;;5.03;2.22;;;;;;;27.06;37.53;101025.53;4972657;28;98627;-70
2022/06/30 00:34:13;;;;;;;4.15;2.05;;;;;;;26.98;37.78;101034.44;4974177;28;97293;-70
2022/06/30 00:36:39;;;;;;;3.00;2.10;;;;;;;26.91;37.89;101027.94;4970728;28;99454;-70
2022/06/30 00:39:06;;;;;;;4.85;2.03;;;;;;;26.97;38.08;101019.19;4971702;28;98914;-71
2022/06/30 00:41:32;;;;;;;6.55;2.00;;;;;;;26.69;38.64;101015.63;4975339;28;96755;-71
2022/06/30 00:44:00;;;;;;;4.97;2.25;;;;;;;26.89;38.47;101019.09;4973096;28;98508;-71
2022/06/30 00:46:26;;;;;;;6.03;2.47;;;;;;;26.87;38.85;101012.94;4972723;28;99002;-71
2022/06/30 00:48:52;;;;;;;4.47;2.08;;;;;;;26.88;38.85;101011.94;4972820;28;99343;-71
2022/06/30 00:51:19;;;;;;;5.90;1.90;;;;;;;26.91;38.92;101008.97;4974913;28;97113;-71
2022/06/30 00:53:48;;;;;;;4.85;2.80;;;;;;;26.76;39.34;101007.75;4977392;28;96883;-71
2022/06/30 00:56:14;;;;;;;3.67;2.25;;;;;;;26.58;39.71;101015.84;4969802;28;99035;-70
2022/06/30 00:58:42;;;;;;;3.72;2.53;;;;;;;26.80;39.69;101007.28;4972083;28;98811;-70
2022/06/30 01:01:11;;;;;;;5.28;2.58;;;;;;;26.87;39.88;101007.53;4973657;28;96811;-70
2022/06/30 01:03:38;;;;;;;6.68;2.67;;;;;;;26.93;39.76;101013.22;4974412;28;97296;-70
2022/06/30 01:06:06;;;;;;;4.00;2.35;;;;;;;26.58;40.70;101005.84;4975589;28;99205;-70
2022/06/30 01:08:34;;;;;;;9.18;2.90;;;;;;;26.82;40.07;101002.56;4975070;28;99004;-70
2022/06/30 01:13:46;;;;;;;6.53;3.05;;;;;;;26.76;40.64;101002.31;4971673;28;96790;-71
2022/06/30 01:16:14;;;;;;;4.55;2.40;;;;;;;26.80;40.90;101011.84;4972802;28;101860;-70
2022/06/30 01:18:40;;;;;;;4.85;2.38;;;;;;;26.82;40.83;101007.13;4973918;28;98791;-70
2022/06/30 01:21:07;;;;;;;3.53;2.10;;;;;;;27.01;40.46;101000.75;4972126;28;96736;-70
2022/06/30 01:23:35;;;;;;;6.47;2.70;;;;;;;26.98;40.59;101007.31;4971715;28;97595;-70
2022/06/30 01:26:01;;;;;;;7.80;2.45;;;;;;;26.96;40.91;101001.22;4971720;28;99593;-70
2022/06/30 01:28:27;;;;;;;5.28;2.50;;;;;;;26.89;40.89;101008.25;4971353;28;100756;-69
2022/06/30 01:30:54;;;;;;;5.55;2.50;;;;;;;27.02;40.80;101013.31;4972576;28;97513;-69
2022/06/30 01:33:21;;;;;;;4.60;2.30;;;;;;;27.01;40.90;101001.59;4971551;28;98791;-69
2022/06/30 01:35:47;;;;;;;6.53;2.55;;;;;;;27.05;40.83;101005.69;4972596;28;99172;-70
2022/06/30 01:38:13;;;;;;;4.53;2.47;;;;;;;27.05;40.69;101007.56;4972187;28;99053;-70
2022/06/30 01:40:41;;;;;;;3.85;2.38;;;;;;;27.00;40.99;101005.31;4971662;28;96896;-69
2022/06/30 01:43:11;;;;;;;5.43;2.65;;;;;;;26.94;41.13;101000.50;4973338;28;96928;-70
2022/06/30 01:45:38;;;;;;;10.07;3.08;;;;;;;26.88;41.65;100996.53;4971354;28;98391;-70
2022/06/30 01:48:05;;;;;;;3.47;2.20;;;;;;;27.03;41.13;101001.47;4970693;28;99436;-70
2022/06/30 01:50:32;;;;;;;7.00;2.80;;;;;;;26.84;41.77;100997.00;4974066;28;96758;-70
2022/06/30 01:52:59;;;;;;;6.47;2.20;;;;;;;26.88;41.53;101001.09;4971507;28;97436;-71
2022/06/30 01:55:27;;;;;;;3.75;2.60;;;;;;;26.92;41.47;100999.81;4966319;28;99329;-71
2022/06/30 01:57:55;;;;;;;5.03;2.70;;;;;;;26.93;41.47;100994.22;4969465;28;98745;-71
2022/06/30 02:00:24;;;;;;;9.60;3.03;;;;;;;26.76;42.01;100995.03;4973009;28;96907;-71
2022/06/30 02:02:53;;;;;;;3.75;2.33;;;;;;;26.68;42.25;100984.09;4973690;28;97130;-71
2022/06/30 02:05:19;;;;;;;5.93;2.92;;;;;;;26.69;42.02;100984.97;4969507;28;99071;-71
2022/06/30 02:07:46;;;;;;;6.93;2.47;;;;;;;26.74;42.09;100982.63;4970338;28;99271;-70
2022/06/30 02:10:14;;;;;;;4.32;2.58;;;;;;;26.66;42.18;100986.09;4973351;28;96890;-70
2022/06/30 02:12:46;;;;;;;6.43;2.38;;;;;;;26.83;41.78;100977.16;4971427;28;97041;-71
2022/06/30 02:15:15;;;;;;;5.07;2.60;;;;;;;26.88;41.53;100979.41;4971371;28;102010;-70
2022/06/30 02:17:42;;;;;;;5.50;2.13;;;;;;;26.69;42.01;100982.25;4972266;28;98125;-70
2022/06/30 02:20:11;;;;;;;4.47;2.28;;;;;;;26.80;41.77;100971.19;4971855;28;98635;-71
2022/06/30 02:22:38;;;;;;;6.53;2.85;;;;;;;26.77;41.85;100982.34;4971837;28;96929;-70
2022/06/30 02:25:07;;;;;;;6.68;2.60;;;;;;;26.94;41.45;100985.09;4972236;28;99575;-70
2022/06/30 02:27:33;;;;;;;3.80;2.15;;;;;;;26.86;41.76;100974.13;4969096;28;99432;-70
2022/06/30 02:30:00;;;;;;;5.72;2.60;;;;;;;26.89;41.87;100970.31;4972691;28;96981;-70
2022/06/30 02:32:28;;;;;;;4.50;2.40;;;;;;;26.88;41.69;100969.41;4973047;28;97374;-71
2022/06/30 02:34:55;;;;;;;6.70;3.03;;;;;;;26.83;42.06;100966.31;4971549;28;98991;-70
2022/06/30 02:37:22;;;;;;;4.15;2.90;;;;;;;26.86;41.67;100966.00;4970986;28;98810;-71
2022/06/30 02:39:48;;;;;;;6.72;2.60;;;;;;;26.79;41.84;100970.31;4970929;28;96930;-70
2022/06/30 02:42:14;;;;;;;4.00;2.53;;;;;;;26.88;41.99;100965.84;4972293;28;96927;-71
2022/06/30 02:44:40;;;;;;;5.50;2.60;;;;;;;26.92;41.77;100965.41;4972273;28;99055;-70
2022/06/30 02:47:07;;;;;;;5.63;2.85;;;;;;;26.79;42.20;100964.91;4973168;28;99005;-70
2022/06/30 02:49:37;;;;;;;3.03;2.72;;;;;;;26.67;42.11;100965.28;4971391;28;97120;-70
2022/06/30 02:52:04;;;;;;;7.38;2.45;;;;;;;26.83;41.98;100968.19;4970394;28;97532;-71
2022/06/30 02:54:30;;;;;;;5.20;2.50;;;;;;;26.79;42.07;100964.06;4971530;28;99353;-71
2022/06/30 02:56:56;;;;;;;7.45;3.00;;;;;;;26.88;41.79;100957.72;4971139;28;99499;-71
2022/06/30 02:59:23;;;;;;;4.25;2.35;;;;;;;26.87;41.94;100956.84;4971737;28;96880;-71
2022/06/30 03:01:49;;;;;;;3.25;2.45;;;;;;;26.67;42.30;100965.28;4969225;28;99086;-71
2022/06/30 03:04:16;;;;;;;7.53;2.65;;;;;;;26.66;42.50;100960.84;4970968;28;99079;-72
2022/06/30 03:06:43;;;;;;;5.93;2.40;;;;;;;26.73;42.23;100965.53;4972915;28;98951;-71
2022/06/30 03:09:10;;;;;;;4.18;2.30;;;;;;;26.76;42.37;100964.38;4971897;28;96807;-71
2022/06/30 03:11:36;;;;;;;5.97;2.80;;;;;;;26.81;42.04;100970.19;4972100;28;97367;-71
2022/06/30 03:14:02;;;;;;;3.83;2.70;;;;;;;26.85;41.96;100963.44;4966529;28;99352;-71
2022/06/30 03:16:29;;;;;;;6.95;2.40;;;;;;;26.91;41.72;100962.88;4970865;28;99581;-71
2022/06/30 03:18:55;;;;;;;5.18;2.30;;;;;;;26.82;41.85;100959.19;4972413;28;96832;-71
2022/06/30 03:21:21;;;;;;;8.02;2.50;;;;;;;26.61;42.23;100960.47;4972752;28;96968;-71
2022/06/30 03:23:49;;;;;;;4.07;2.60;;;;;;;26.89;41.53;100949.47;4970826;28;99546;-71
2022/06/30 03:26:16;;;;;;;4.10;2.28;;;;;;;26.97;41.51;100962.25;4967252;28;100054;-71
2022/06/30 03:28:43;;;;;;;6.00;2.83;;;;;;;26.91;41.60;100961.00;4967323;28;97155;-71
2022/06/30 03:31:09;;;;;;;6.13;2.80;;;;;;;27.03;41.40;100964.34;4972818;28;97217;-71
2022/06/30 03:33:37;;;;;;;3.72;2.20;;;;;;;26.93;41.96;100950.00;4971495;28;99199;-70
2022/06/30 03:36:03;;;;;;;8.35;2.60;;;;;;;27.01;41.62;100938.38;4974638;28;98738;-70
2022/06/30 03:38:31;;;;;;;9.27;3.30;;;;;;;26.92;41.83;100929.31;4974244;28;96861;-70
2022/06/30 03:40:59;;;;;;;5.68;2.83;;;;;;;26.91;40.44;100923.03;4976517;28;96969;-71
2022/06/30 03:43:25;;;;;;;6.15;2.33;;;;;;;26.80;40.30;100923.25;4974746;28;97817;-70
2022/06/30 03:45:51;;;;;;;6.03;2.45;;;;;;;27.07;39.58;100922.34;4973350;28;97616;-71
2022/06/30 03:48:18;;;;;;;3.40;2.10;;;;;;;26.97;39.64;100927.00;4974273;28;96868;-70
2022/06/30 03:50:44;;;;;;;4.65;2.30;;;;;;;26.95;39.57;100926.28;4974660;28;96966;-71
2022/06/30 03:53:10;;;;;;;5.57;2.30;;;;;;;27.00;39.52;100923.97;4974608;28;98955;-70
2022/06/30 03:55:39;;;;;;;4.72;2.20;;;;;;;27.05;39.41;100927.06;4972791;28;98082;-71
2022/06/30 03:58:07;;;;;;;5.88;2.25;;;;;;;26.96;39.82;100928.00;4974951;28;97461;-70
2022/06/30 04:00:33;;;;;;;4.00;2.03;;;;;;;27.22;39.60;100923.50;4976362;28;96890;-70
2022/06/30 04:03:00;;;;;;;3.17;2.05;;;;;;;27.22;39.52;100923.50;4972285;28;99131;-70
2022/06/30 04:05:26;;;;;;;3.72;2.00;;;;;;;26.99;39.66;100924.97;4979613;28;99572;-70
2022/06/30 04:07:53;;;;;;;4.95;2.38;;;;;;;27.31;39.27;100924.38;4970608;28;98269;-71
2022/06/30 04:10:19;;;;;;;5.97;2.70;;;;;;;27.20;39.51;100919.22;4973647;28;97608;-69
2022/06/30 04:12:45;;;;;;;4.00;2.25;;;;;;;26.98;40.07;100921.41;4969182;28;101839;-69
2022/06/30 04:15:13;;;;;;;3.17;2.25;;;;;;;27.26;39.63;100924.00;4970963;28;98945;-70
2022/06/30 04:17:39;;;;;;;4.97;2.47;;;;;;;27.28;39.54;100930.13;4970224;28;97536;-70
2022/06/30 04:20:15;;;;;;;8.23;2.28;;;;;;;27.19;39.79;100934.63;4972829;28;97129;-71
2022/06/30 04:22:42;;;;;;;4.35;2.40;;;;;;;27.45;39.20;100926.53;4968599;28;98672;-70
2022/06/30 04:25:09;;;;;;;3.95;2.33;;;;;;;27.40;39.67;100925.31;4968691;28;98908;-70
2022/06/30 04:27:36;;;;;;;5.20;2.20;;;;;;;27.51;39.39;100927.75;4969395;28;97907;-70
2022/06/30 04:30:02;;;;;;;3.20;2.17;;;;;;;27.54;39.47;100927.47;4971728;28;97095;-70
2022/06/30 04:32:37;;;;;;;2.90;2.17;;;;;;;27.14;40.38;100928.84;4971349;28;98744;-70
2022/06/30 04:35:05;;;;;;;12.83;3.17;;;;;;;27.67;39.41;100938.75;4966086;28;98878;-70
2022/06/30 04:37:32;;;;;;;4.53;2.30;;;;;;;27.60;39.73;100933.13;4970888;28;97509;-69
2022/06/30 04:42:38;;;;;;;5.80;2.20;;;;;;;27.58;39.86;100932.41;4967333;28;98108;-70
2022/06/30 04:45:06;;;;;;;4.25;2.65;;;;;;;27.60;40.07;100932.25;4968291;28;99001;-69
2022/06/30 04:47:34;;;;;;;3.45;2.53;;;;;;;27.38;40.31;100923.59;4972511;28;97163;-69
2022/06/30 04:50:01;;;;;;;5.97;2.60;;;;;;;27.27;40.66;100923.00;4970585;28;97358;-69
2022/06/30 04:52:27;;;;;;;8.00;2.60;;;;;;;27.35;40.88;100929.34;4972437;28;98937;-70
2022/06/30 04:54:53;;;;;;;5.55;2.83;;;;;;;27.48;40.35;100919.94;4970179;28;98758;-70
2022/06/30 04:57:20;;;;;;;3.75;2.42;;;;;;;27.86;40.04;100924.97;4970329;28;96945;-69
2022/06/30 04:59:46;;;;;;;8.23;2.60;;;;;;;27.67;40.27;100930.63;4974003;28;97364;-70
2022/06/30 05:02:12;;;;;;;7.50;3.03;;;;;;;27.46;40.60;100924.66;4970980;28;99828;-69
2022/06/30 05:04:43;;;;;;;5.22;3.00;;;;;;;27.63;40.39;100924.66;4962078;28;99449;-69
2022/06/30 05:07:09;;;;;;;5.25;2.83;;;;;;;27.52;40.56;100918.63;4969055;28;96809;-70
2022/06/30 05:09:35;;;;;;;4.85;2.92;;;;;;;27.52;40.87;100918.63;4971860;28;98925;-70
2022/06/30 05:12:02;;;;;;;6.07;2.90;;;;;;;27.68;40.63;100919.59;4966427;28;99057;-70
2022/06/30 05:14:28;;;;;;;10.10;2.85;;;;;;;27.73;40.54;100913.69;4964476;28;99208;-69
2022/06/30 05:16:55;;;;;;;10.15;3.15;;;;;;;27.74;40.13;100909.97;4967927;28;97096;-70
2022/06/30 05:19:21;;;;;;;9.50;3.65;;;;;;;27.90;40.02;100918.19;4964548;28;97581;-69
2022/06/30 05:21:49;;;;;;;4.55;2.97;;;;;;;27.98;39.68;100915.50;4973095;28;97606;-70
2022/06/30 05:26:59;;;;;;;6.82;2.92;;;;;;;28.15;39.47;100908.31;4964720;28;96935;-69
2022/06/30 05:29:26;;;;;;;5.18;3.33;;;;;;;28.12;39.62;100914.91;4965782;28;96994;-70
2022/06/30 05:31:52;;;;;;;7.57;3.08;;;;;;;28.29;39.29;100920.44;4967047;28;99331;-70
2022/06/30 05:34:19;;;;;;;5.65;2.70;;;;;;;28.41;39.15;100910.97;4969624;28;98839;-70
2022/06/30 05:36:45;;;;;;;8.55;5.13;;;;;;;28.60;38.58;100916.09;4966708;28;96797;-70
2022/06/30 05:39:13;;;;;;;5.93;3.40;;;;;;;28.63;38.95;100909.47;4971232;28;97190;-70
2022/06/30 05:41:39;;;;;;;5.10;3.00;;;;;;;28.60;38.83;100910.66;4967790;28;99041;-71
2022/06/30 05:44:05;;;;;;;4.85;3.05;;;;;;;28.67;38.79;100914.41;4973292;28;99296;-70
2022/06/30 05:46:32;;;;;;;14.15;4.68;;;;;;;28.77;38.80;100914.28;4974265;28;96818;-70
2022/06/30 05:48:58;;;;;;;6.90;3.88;;;;;;;28.90;38.77;100915.47;4972672;28;96909;-69
2022/06/30 05:51:24;;;;;;;6.00;4.00;;;;;;;29.42;37.68;100915.16;4971695;28;98093;-70
2022/06/30 05:53:51;;;;;;;13.65;3.25;;;;;;;29.25;37.85;100916.19;4969565;28;98742;-69
2022/06/30 05:56:19;;;;;;;28.55;4.22;;;;;;;29.46;37.77;100919.25;4970624;28;97006;-70
2022/06/30 05:58:46;;;;;;;20.30;3.58;;;;;;;29.82;36.84;100914.22;4970960;28;98554;-70
2022/06/30 06:01:12;;;;;;;9.57;2.88;;;;;;;30.09;36.68;100911.09;4971719;28;101759;-70
2022/06/30 06:03:38;;;;;;;23.70;3.88;;;;;;;30.04;36.12;100907.22;4970468;28;98838;-71
2022/06/30 06:06:05;;;;;;;6.28;3.05;;;;;;;30.44;35.25;100911.63;4968287;28;96821;-70
2022/06/30 06:08:31;;;;;;;15.02;3.78;;;;;;;30.31;35.93;100920.38;4971482;28;97095;-70
2022/06/30 06:10:58;;;;;;;9.82;3.45;;;;;;;30.29;36.03;100929.75;4967027;28;99297;-70
2022/06/30 06:13:26;;;;;;;10.07;4.38;;;;;;;30.34;35.71;100932.78;4963657;28;99059;-70
2022/06/30 06:15:55;;;;;;;25.00;4.50;;;;;;;30.30;36.01;100934.16;4970967;28;97241;-70
2022/06/30 06:18:22;;;;;;;5.72;3.08;;;;;;;30.26;36.08;100939.13;4970976;28;97270;-70
2022/06/30 06:20:48;;;;;;;4.70;3.08;;;;;;;29.76;36.93;100949.47;4970480;28;98246;-69
2022/06/30 06:23:15;;;;;;;10.25;2.92;;;;;;;29.85;36.71;100952.03;4969796;28;98781;-71
2022/06/30 06:25:41;;;;;;;4.65;2.92;;;;;;;29.67;36.83;100952.22;4968854;28;96965;-71
2022/06/30 06:30:53;;;;;;;8.57;2.92;;;;;;;29.69;37.38;100952.91;4975212;28;97456;-71
2022/06/30 06:33:19;;;;;;;5.40;3.20;;;;;;;29.57;37.37;100954.28;4976245;28;99039;-71
2022/06/30 06:35:46;;;;;;;12.82;4.00;;;;;;;29.46;37.86;100951.91;4969961;28;97330;-70
2022/06/30 06:38:12;;;;;;;11.00;3.22;;;;;;;29.48;37.83;100960.75;4969901;28;96814;-70
2022/06/30 06:40:41;;;;;;;5.88;3.47;;;;;;;29.19;38.46;100955.81;4978316;28;99296;-71
2022/06/30 06:43:08;;;;;;;10.98;4.13;;;;;;;29.19;38.50;100954.97;4975376;28;101602;-72
2022/06/30 06:45:34;;;;;;;8.95;3.70;;;;;;;29.27;38.66;100952.25;4978863;28;96826;-70
2022/06/30 06:48:02;;;;;;;7.65;4.00;;;;;;;29.22;38.83;100954.59;4973221;28;97599;-71
2022/06/30 06:50:29;;;;;;;7.90;3.75;;;;;;;29.30;38.71;100951.88;4975120;28;98304;-70
2022/06/30 06:52:56;;;;;;;8.27;3.08;;;;;;;29.16;39.06;100952.56;4971530;28;97786;-70
2022/06/30 06:55:22;;;;;;;7.38;3.30;;;;;;;28.99;39.23;100951.72;4976669;28;96811;-70
2022/06/30 06:57:49;;;;;;;30.77;5.10;;;;;;;29.13;39.47;100950.19;4971346;28;96874;-69
2022/06/30 07:00:17;;;;;;;6.40;3.17;;;;;;;29.21;39.18;100947.47;4972678;28;99363;-70
2022/06/30 07:02:44;;;;;;;14.40;3.53;;;;;;;29.04;39.60;100949.31;4968610;28;98902;-70
2022/06/30 07:05:12;;;;;;;22.65;4.63;;;;;;;29.24;39.07;100945.25;4971183;28;97170;-70
2022/06/30 07:07:39;;;;;;;10.27;3.83;;;;;;;29.06;39.42;100950.03;4970140;28;97248;-70
2022/06/30 07:10:07;;;;;;;14.77;4.05;;;;;;;29.07;39.42;100950.88;4979154;28;98898;-70
2022/06/30 07:12:43;;;;;;;10.95;4.05;;;;;;;28.89;39.99;100954.56;4976520;28;99502;-72
2022/06/30 07:15:11;;;;;;;8.43;3.80;;;;;;;28.92;39.73;100959.69;4968931;28;97126;-69
2022/06/30 07:17:37;;;;;;;25.25;4.97;;;;;;;28.79;40.37;100963.91;4970657;28;96849;-70
2022/06/30 07:20:05;;;;;;;17.55;4.20;;;;;;;28.84;40.13;100959.69;4976379;28;98991;-69
2022/06/30 07:22:34;;;;;;;8.63;4.45;;;;;;;28.54;41.40;100965.69;4980396;28;99330;-69
2022/06/30 07:25:00;;;;;;;15.23;4.47;;;;;;;28.71;41.18;100970.16;4975130;28;96804;-70
2022/06/30 07:27:26;;;;;;;13.52;4.63;;;;;;;29.03;40.53;100972.09;4978486;28;96948;-70
2022/06/30 07:29:53;;;;;;;7.53;4.10;;;;;;;28.88;40.91;100963.75;4973809;28;99012;-69
2022/06/30 07:32:19;;;;;;;11.43;4.80;;;;;;;29.22;40.28;100963.63;4979551;28;99221;-71
2022/06/30 07:34:45;;;;;;;13.35;5.70;;;;;;;29.45;39.61;100963.84;4973049;28;96722;-70
2022/06/30 07:37:12;;;;;;;6.70;4.88;;;;;;;28.99;40.72;100965.31;4978977;28;96972;-70
2022/06/30 07:39:40;;;;;;;9.73;5.60;;;;;;;29.14;40.82;100966.34;4974766;28;99286;-71
2022/06/30 07:42:06;;;;;;;7.82;4.95;;;;;;;29.27;40.13;100958.53;4976834;28;97742;-71
2022/06/30 07:44:33;;;;;;;11.18;5.45;;;;;;;29.29;40.53;100958.34;4973462;28;97154;-71
2022/06/30 07:46:59;;;;;;;7.88;5.15;;;;;;;29.38;39.99;100951.91;4980289;28;96837;-70
2022/06/30 07:49:26;;;;;;;8.30;4.82;;;;;;;29.36;40.22;100953.09;4978407;28;102043;-70
2022/06/30 07:51:53;;;;;;;7.50;4.78;;;;;;;29.61;39.53;100950.19;4982253;28;98847;-70
2022/06/30 07:54:20;;;;;;;14.30;5.22;;;;;;;29.49;39.96;100953.44;4975797;28;96833;-70
2022/06/30 07:56:48;;;;;;;18.38;6.22;;;;;;;29.73;39.67;100947.97;4980644;28;97288;-71
2022/06/30 07:59:14;;;;;;;5.85;4.90;;;;;;;29.61;39.10;100943.88;4969754;28;99101;-70
2022/06/30 08:01:41;;;;;;;7.15;5.00;;;;;;;29.50;39.74;100950.53;4976668;28;99151;-71
2022/06/30 08:04:08;;;;;;;13.27;5.05;;;;;;;29.77;39.33;100945.72;4958486;28;97168;-71
2022/06/30 08:06:34;;;;;;;10.95;5.45;;;;;;;30.10;38.66;100944.66;4970104;28;97900;-70
2022/06/30 08:09:01;;;;;;;6.47;4.90;;;;;;;30.23;38.29;100944.09;4971254;28;98942;-69
2022/06/30 08:11:28;;;;;;;12.50;5.20;;;;;;;30.24;38.50;100943.91;4970794;28;98242;-70
2022/06/30 08:13:55;;;;;;;9.43;5.80;;;;;;;30.00;38.67;100933.94;4971301;28;96875;-71
2022/06/30 08:16:22;;;;;;;6.55;5.07;;;;;;;30.17;38.21;100937.47;4973895;28;97351;-71
2022/06/30 08:18:48;;;;;;;10.80;5.10;;;;;;;30.33;38.29;100940.09;4971001;28;97808;-70
2022/06/30 08:21:15;;;;;;;6.15;4.68;;;;;;;30.06;38.67;100937.88;4975138;28;101287;-70
2022/06/30 08:23:41;;;;;;;8.20;4.55;;;;;;;30.22;38.62;100929.59;4973707;28;97596;-70
2022/06/30 08:26:08;;;;;;;13.85;6.38;;;;;;;30.28;38.31;100944.41;4977577;28;96876;-70
2022/06/30 08:28:34;;;;;;;7.82;4.95;;;;;;;30.07;38.49;100944.97;4972378;28;99244;-69
2022/06/30 08:31:02;;;;;;;5.53;4.45;;;;;;;30.12;38.49;100937.16;4980280;28;99163;-70
2022/06/30 08:33:29;;;;;;;6.80;4.65;;;;;;;30.32;38.62;100929.41;4974444;28;97140;-69
2022/06/30 08:35:55;;;;;;;7.65;5.15;;;;;;;30.07;38.57;100931.38;4977535;28;96998;-70
2022/06/30 08:38:22;;;;;;;7.35;5.22;;;;;;;30.25;38.50;100937.44;4974613;28;99018;-69
2022/06/30 08:43:34;;;;;;;11.80;6.40;;;;;;;30.36;38.29;100939.75;4977383;28;97372;-70
2022/06/30 08:46:02;;;;;;;9.95;5.05;;;;;;;30.26;38.56;100939.13;4975787;28;96867;-71
2022/06/30 08:48:29;;;;;;;10.77;5.28;;;;;;;30.64;37.91;100931.13;4977509;28;99205;-70
2022/06/30 08:51:00;;;;;;;12.80;6.00;;;;;;;30.55;37.85;100938.50;4971273;28;99074;-70
2022/06/30 08:53:31;;;;;;;8.30;4.65;;;;;;;31.05;37.41;100940.72;4973657;28;97833;-70
2022/06/30 08:55:57;;;;;;;16.65;5.65;;;;;;;31.37;36.92;100930.59;4973817;28;97056;-70
2022/06/30 08:58:25;;;;;;;5.80;4.38;;;;;;;31.41;36.97;100934.63;4969976;28;99509;-70
2022/06/30 09:00:53;;;;;;;5.65;4.65;;;;;;;31.41;36.65;100930.03;4969659;28;98819;-70
2022/06/30 09:03:20;;;;;;;39.08;6.18;;;;;;;31.52;36.35;100917.78;4975421;28;96848;-70
2022/06/30 09:05:47;;;;;;;6.40;4.68;;;;;;;31.44;36.67;100923.38;4964405;28;97425;-69
2022/06/30 09:08:14;;;;;;;7.07;4.75;;;;;;;31.48;36.76;100920.06;4972190;28;98941;-71
2022/06/30 09:10:48;;;;;;;5.65;4.35;;;;;;;31.52;36.55;100926.00;4975213;28;99379;-70
2022/06/30 09:13:14;;;;;;;11.35;5.15;;;;;;;31.65;36.37;100926.22;4974801;28;97157;-71
2022/06/30 09:15:41;;;;;;;8.52;4.40;;;;;;;31.78;35.99;100926.44;4967469;28;97695;-69
2022/06/30 09:18:08;;;;;;;6.07;3.90;;;;;;;31.74;36.70;100919.66;4971499;28;98919;-70
2022/06/30 09:20:37;;;;;;;20.77;5.15;;;;;;;31.78;36.23;100920.97;4975535;28;98641;-70
2022/06/30 09:23:19;;;;;;;7.85;5.03;;;;;;;31.74;36.60;100914.19;4973631;28;97008;-69
2022/06/30 09:25:48;;;;;;;11.77;5.15;;;;;;;31.89;36.13;100912.31;4972125;28;97226;-71
2022/06/30 09:28:15;;;;;;;9.07;4.70;;;;;;;31.62;36.40;100913.81;4973461;28;99180;-71
2022/06/30 09:30:41;;;;;;;9.32;4.93;;;;;;;31.89;36.13;100906.84;4973538;28;98854;-71
2022/06/30 09:33:09;;;;;;;10.00;5.38;;;;;;;31.66;36.14;100917.84;4974148;28;97373;-70
2022/06/30 09:35:38;;;;;;;10.93;5.28;;;;;;;31.73;36.74;100917.94;4964575;28;97539;-70
2022/06/30 09:38:11;;;;;;;6.55;4.70;;;;;;;31.95;35.92;100913.44;4969605;28;99380;-72
2022/06/30 09:41:00;;;;;;;8.30;4.75;;;;;;;31.81;36.16;100920.59;4972752;28;99696;-72
2022/06/30 09:43:31;;;;;;;6.78;4.80;;;;;;;32.06;35.88;100912.94;4973722;28;97476;-72
2022/06/30 09:45:57;;;;;;;12.23;4.97;;;;;;;32.68;35.12;100916.09;4966094;28;97935;-72
2022/06/30 09:48:27;;;;;;;7.82;3.65;;;;;;;32.80;34.79;100913.69;4974513;28;99210;-72
2022/06/30 09:50:58;;;;;;;6.15;4.45;;;;;;;33.17;34.21;100923.50;4973294;28;99031;-71
2022/06/30 09:53:25;;;;;;;7.57;4.40;;;;;;;33.23;33.89;100920.00;4973252;28;97311;-71
2022/06/30 09:55:51;;;;;;;11.15;5.03;;;;;;;33.00;33.99;100911.16;4969977;28;97441;-71
2022/06/30 09:58:36;;;;;;;5.18;4.57;;;;;;;32.77;34.33;100914.06;4974471;28;99720;-71
2022/06/30 10:01:04;;;;;;;16.45;5.57;;;;;;;32.89;34.39;100920.72;4973035;28;99088;-73
2022/06/30 10:03:30;;;;;;;9.75;4.95;;;;;;;32.98;34.23;100921.44;4974009;28;97763;-72
2022/06/30 10:06:10;;;;;;;9.18;4.28;;;;;;;32.49;34.64;100919.44;4967082;28;96992;-71
2022/06/30 10:08:37;;;;;;;5.63;4.95;;;;;;;32.14;35.45;100931.16;4972632;28;101681;-72
2022/06/30 10:11:04;;;;;;;9.77;4.80;;;;;;;31.97;35.77;100925.84;4976306;28;98821;-70
2022/06/30 10:13:35;;;;;;;6.70;4.25;;;;;;;32.36;35.28;100919.28;4975247;28;96922;-72
2022/06/30 10:16:04;;;;;;;7.25;4.20;;;;;;;32.51;35.16;100922.78;4973636;28;97384;-71
2022/06/30 10:18:33;;;;;;;9.27;4.60;;;;;;;32.55;34.88;100918.66;4974359;28;98984;-72
2022/06/30 10:21:01;;;;;;;5.50;4.20;;;;;;;32.95;34.61;100914.44;4972975;28;100883;-70
2022/06/30 10:23:29;;;;;;;8.80;5.30;;;;;;;33.12;33.68;100915.03;4975572;28;97359;-70
2022/06/30 10:25:56;;;;;;;14.48;5.03;;;;;;;33.09;34.17;100915.44;4977263;28;97111;-70
2022/06/30 10:28:24;;;;;;;7.57;5.60;;;;;;;32.93;34.18;100912.97;4973020;28;100620;-71
2022/06/30 10:30:59;;;;;;;9.68;5.30;;;;;;;32.65;34.55;100913.69;4975083;28;98940;-71
2022/06/30 10:33:31;;;;;;;5.90;5.30;;;;;;;32.33;35.43;100912.28;4978670;28;97517;-70
2022/06/30 10:36:07;;;;;;;6.88;5.03;;;;;;;32.64;34.53;100906.53;4973694;28;96944;-71
2022/06/30 10:38:43;;;;;;;10.77;5.60;;;;;;;32.90;34.38;100905.13;4973878;28;101417;-70
2022/06/30 10:41:22;;;;;;;9.73;5.25;;;;;;;32.52;35.18;100905.34;4973087;28;98705;-70
2022/06/30 10:44:25;;;;;;;8.90;4.60;;;;;;;32.37;35.20;100901.78;4973658;28;97572;-70
2022/06/30 10:47:09;;;;;;;9.43;4.93;;;;;;;32.38;35.33;100896.16;4970235;28;97589;-70
2022/06/30 10:49:52;;;;;;;10.43;4.68;;;;;;;32.56;34.57;100897.63;4971374;28;98994;-70
2022/06/30 10:52:20;;;;;;;9.05;5.00;;;;;;;33.17;33.81;100902.44;4974013;28;99292;-70
2022/06/30 10:54:48;;;;;;;9.27;5.63;;;;;;;33.61;33.64;100907.66;4971395;28;97274;-70
2022/06/30 10:57:16;;;;;;;5.72;4.90;;;;;;;33.40;33.52;100902.25;4973510;28;96944;-71
2022/06/30 10:59:42;;;;;;;11.35;5.38;;;;;;;33.33;33.64;100904.09;4975314;28;99010;-71
2022/06/30 11:02:25;;;;;;;7.47;5.75;;;;;;;33.39;33.60;100899.72;4972532;28;96960;-70
2022/06/30 11:05:12;;;;;;;8.75;6.05;;;;;;;33.47;33.39;100897.69;4971965;28;96733;-71
2022/06/30 11:07:40;;;;;;;6.50;5.47;;;;;;;33.57;33.54;100898.16;4970388;28;98497;-71
2022/06/30 11:10:19;;;;;;;8.60;5.63;;;;;;;33.11;33.91;100896.91;4973846;28;98986;-70
2022/06/30 11:13:07;;;;;;;12.45;6.20;;;;;;;32.97;34.54;100892.38;4974515;28;97807;-71
2022/06/30 11:15:57;;;;;;;8.70;6.13;;;;;;;32.83;34.73;100889.50;4969207;28;96815;-70
2022/06/30 11:18:25;;;;;;;11.48;5.82;;;;;;;33.11;34.56;100896.91;4973596;28;96780;-69
2022/06/30 11:20:53;;;;;;;8.70;6.32;;;;;;;33.00;33.98;100897.47;4970181;28;99741;-70
2022/06/30 11:23:22;;;;;;;24.35;8.18;;;;;;;33.13;33.99;100886.63;4976608;28;98124;-70
2022/06/30 11:28:35;;;;;;;9.52;5.90;;;;;;;33.21;33.83;100892.00;4967458;28;96753;-71
2022/06/30 11:31:01;;;;;;;7.57;6.20;;;;;;;33.62;32.88;100889.31;4975583;28;102077;-71
2022/06/30 11:33:28;;;;;;;9.95;6.22;;;;;;;33.60;33.52;100886.81;4974007;28;99538;-71
2022/06/30 11:36:02;;;;;;;9.77;6.28;;;;;;;33.76;33.05;100882.06;4971143;28;96983;-70
2022/06/30 11:38:30;;;;;;;7.07;5.70;;;;;;;33.95;32.62;100876.69;4972903;28;97609;-70
2022/06/30 11:41:54;;;;;;;8.27;6.25;;;;;;;34.18;32.27;100879.13;4970900;28;99484;-70
2022/06/30 11:43:43;;;;;;;;;;;;;;;34.16;32.78;100874.88;4970966;28;99038;-69
2022/06/30 11:46:09;;;;;;;14.65;7.22;;;;;;;34.37;32.33;100877.53;4973668;28;96835;-70